createdAt,value
2023-04-21T00:02:15.993Z,78.81
2023-04-21T00:04:42.397Z,77.73
2023-04-21T00:07:08.626Z,75.44
2023-04-21T00:09:34.722Z,74.76
2023-04-21T00:12:00.819Z,73.70
2023-04-21T00:14:26.921Z,73.04
2023-04-21T00:16:53.050Z,72.79
2023-04-21T00:19:19.327Z,71.45
2023-04-21T00:21:45.518Z,69.92
2023-04-21T00:24:11.651Z,69.40
2023-04-21T00:26:37.741Z,70.62
2023-04-21T00:29:03.858Z,71.06
2023-04-21T00:31:30.023Z,70.85
2023-04-21T00:33:56.149Z,70.33
2023-04-21T00:36:22.252Z,69.64
2023-04-21T00:38:48.357Z,69.09
2023-04-21T00:41:14.487Z,70.12
2023-04-21T00:43:40.599Z,69.25
2023-04-21T00:46:06.715Z,69.41
2023-04-21T00:48:32.823Z,70.02
2023-04-21T00:50:58.932Z,70.25
2023-04-21T00:53:25.029Z,70.75
2023-04-21T00:55:51.136Z,69.88
2023-04-21T00:58:17.251Z,70.25
2023-04-21T01:00:43.393Z,69.29
2023-04-21T01:03:09.726Z,68.22
2023-04-21T01:05:36.006Z,67.61
2023-04-21T01:08:02.171Z,67.50
2023-04-21T01:10:28.322Z,66.99
2023-04-21T01:12:54.419Z,66.17
2023-04-21T01:15:20.521Z,65.42
2023-04-21T01:17:46.675Z,64.89
2023-04-21T01:20:12.797Z,64.97
2023-04-21T01:22:38.909Z,65.04
2023-04-21T01:25:05.022Z,64.75
2023-04-21T01:27:31.179Z,64.98
2023-04-21T01:29:57.264Z,66.77
2023-04-21T01:32:23.469Z,67.49
2023-04-21T01:34:49.687Z,66.88
2023-04-21T01:37:15.819Z,65.61
2023-04-21T01:39:41.945Z,65.01
2023-04-21T01:42:08.066Z,66.62
2023-04-21T01:44:34.196Z,66.44
2023-04-21T01:47:00.320Z,65.73
2023-04-21T01:49:26.404Z,66.14
2023-04-21T01:51:52.498Z,65.38
2023-04-21T01:54:18.600Z,64.78
2023-04-21T01:56:44.764Z,63.76
2023-04-21T01:59:10.943Z,63.92
2023-04-21T02:01:37.043Z,63.11
2023-04-21T02:04:03.480Z,63.10
2023-04-21T02:06:29.745Z,63.68
2023-04-21T02:08:55.852Z,64.27
2023-04-21T02:11:21.973Z,64.28
2023-04-21T02:13:48.076Z,63.86
2023-04-21T02:16:14.497Z,63.49
2023-04-21T02:18:40.716Z,63.79
2023-04-21T02:21:06.816Z,64.20
2023-04-21T02:23:32.918Z,64.05
2023-04-21T02:25:59.026Z,64.81
2023-04-21T02:28:25.118Z,64.75
2023-04-21T02:30:51.258Z,65.01
2023-04-21T02:33:17.437Z,65.50
2023-04-21T02:35:43.558Z,65.79
2023-04-21T02:40:53.215Z,65.86
2023-04-21T02:43:19.331Z,66.26
2023-04-21T02:45:45.481Z,66.19
2023-04-21T02:48:11.780Z,66.58
2023-04-21T02:50:38.153Z,67.87
2023-04-21T02:53:04.266Z,67.87
2023-04-21T02:55:30.366Z,67.52
2023-04-21T02:57:56.494Z,68.00
2023-04-21T03:00:22.594Z,68.46
2023-04-21T03:02:48.882Z,69.25
2023-04-21T03:05:15.097Z,68.95
2023-04-21T03:07:41.210Z,69.63
2023-04-21T03:10:07.330Z,68.93
2023-04-21T03:12:33.445Z,68.61
2023-04-21T03:14:59.549Z,69.07
2023-04-21T03:17:25.688Z,68.44
2023-04-21T03:19:51.846Z,68.93
2023-04-21T03:22:17.963Z,68.90
2023-04-21T03:24:44.058Z,68.46
2023-04-21T03:27:11.012Z,67.97
2023-04-21T03:29:37.345Z,68.29
2023-04-21T03:32:03.500Z,68.45
2023-04-21T03:34:29.710Z,67.32
2023-04-21T03:36:55.811Z,67.79
2023-04-21T03:39:22.127Z,67.80
2023-04-21T03:41:48.527Z,67.94
2023-04-21T03:44:14.709Z,68.36
2023-04-21T03:46:40.808Z,68.28
2023-04-21T03:49:06.925Z,68.17
2023-04-21T03:51:33.012Z,67.74
2023-04-21T03:53:59.098Z,68.00
2023-04-21T03:56:25.216Z,67.81
2023-04-21T03:58:51.309Z,66.59
2023-04-21T04:01:17.417Z,67.50
2023-04-21T04:03:43.622Z,68.57
2023-04-21T04:06:09.845Z,70.02
2023-04-21T04:08:35.937Z,72.36
2023-04-21T04:11:02.038Z,71.06
2023-04-21T04:13:28.134Z,69.78
2023-04-21T04:15:54.312Z,69.61
2023-04-21T04:18:20.469Z,69.23
2023-04-21T04:20:46.557Z,69.20
2023-04-21T04:23:12.664Z,68.88
2023-04-21T04:25:38.785Z,69.03
2023-04-21T04:28:04.887Z,67.95
2023-04-21T04:30:31.000Z,69.87
2023-04-21T04:32:57.132Z,69.07
2023-04-21T04:35:23.234Z,68.86
2023-04-21T04:37:49.345Z,67.88
2023-04-21T04:40:15.469Z,68.10
2023-04-21T04:42:41.571Z,67.98
2023-04-21T04:45:07.685Z,67.49
2023-04-21T04:47:33.830Z,66.93
2023-04-21T04:49:59.930Z,66.80
2023-04-21T04:52:26.058Z,67.09
2023-04-21T04:54:52.167Z,66.97
2023-04-21T04:57:18.641Z,66.79
2023-04-21T04:59:44.749Z,66.12
2023-04-21T05:02:10.952Z,67.39
2023-04-21T05:04:37.222Z,67.26
2023-04-21T05:07:03.381Z,67.66
2023-04-21T05:09:29.559Z,67.51
2023-04-21T05:11:55.680Z,67.61
2023-04-21T05:14:21.948Z,67.66
2023-04-21T05:16:48.197Z,67.06
2023-04-21T05:19:16.186Z,66.68
2023-04-21T05:21:43.564Z,65.43
2023-04-21T05:24:09.667Z,66.44
2023-04-21T05:26:35.763Z,66.02
2023-04-21T05:29:01.864Z,65.50
2023-04-21T05:31:28.017Z,65.55
2023-04-21T05:33:55.222Z,65.68
2023-04-21T05:36:21.332Z,65.78
2023-04-21T05:38:47.442Z,65.72
2023-04-21T05:41:13.569Z,65.54
2023-04-21T05:43:39.658Z,63.37
2023-04-21T05:46:05.805Z,62.80
2023-04-21T05:48:31.927Z,62.58
2023-04-21T05:50:58.059Z,61.47
2023-04-21T05:53:24.186Z,63.13
2023-04-21T05:55:50.271Z,63.70
2023-04-21T05:58:16.381Z,63.85
2023-04-21T06:00:42.508Z,63.76
2023-04-21T06:03:08.763Z,64.25
2023-04-21T06:05:35.036Z,64.05
2023-04-21T06:08:01.180Z,63.89
2023-04-21T06:10:27.298Z,64.35
2023-04-21T06:12:53.399Z,63.38
2023-04-21T06:15:19.495Z,63.93
2023-04-21T06:17:45.625Z,64.35
2023-04-21T06:20:11.741Z,64.17
2023-04-21T06:22:37.855Z,65.50
2023-04-21T06:25:03.959Z,66.49
2023-04-21T06:27:30.117Z,67.09
2023-04-21T06:29:56.298Z,67.02
2023-04-21T06:32:22.462Z,68.06
2023-04-21T06:34:48.623Z,68.19
2023-04-21T06:37:14.745Z,68.56
2023-04-21T06:39:40.857Z,68.21
2023-04-21T06:42:06.968Z,68.12
2023-04-21T06:44:33.069Z,67.98
2023-04-21T06:46:59.205Z,68.36
2023-04-21T06:49:25.360Z,68.93
2023-04-21T06:51:51.478Z,68.52
2023-04-21T06:54:17.574Z,67.87
2023-04-21T06:56:43.702Z,67.40
2023-04-21T06:59:09.818Z,66.41
2023-04-21T07:01:35.976Z,65.77
2023-04-21T07:04:02.175Z,66.53
2023-04-21T07:06:28.382Z,65.42
2023-04-21T07:08:54.524Z,64.73
2023-04-21T07:11:20.622Z,63.31
2023-04-21T07:13:46.765Z,61.99
2023-04-21T07:16:12.928Z,61.42
2023-04-21T07:18:39.072Z,58.97
2023-04-21T07:21:05.189Z,58.24
2023-04-21T07:23:31.299Z,56.25
2023-04-21T07:25:57.434Z,56.04
2023-04-21T07:28:23.532Z,56.41
2023-04-21T07:30:49.704Z,57.79
2023-04-21T07:33:15.817Z,55.58
2023-04-21T07:35:41.934Z,57.69
2023-04-21T07:38:08.042Z,58.53
2023-04-21T07:40:34.125Z,59.08
2023-04-21T07:43:00.233Z,60.15
2023-04-21T07:45:26.352Z,60.86
2023-04-21T07:47:52.499Z,65.72
2023-04-21T07:50:18.979Z,65.56
2023-04-21T07:52:45.122Z,63.12
2023-04-21T07:55:11.239Z,61.78
2023-04-21T07:57:37.370Z,58.52
2023-04-21T08:00:03.498Z,60.58
2023-04-21T08:02:29.716Z,58.74
2023-04-21T08:04:55.990Z,58.58
2023-04-21T08:07:22.110Z,57.49
2023-04-21T08:09:48.197Z,55.74
2023-04-21T08:12:14.310Z,57.36
2023-04-21T08:14:40.428Z,56.27
2023-04-21T08:17:06.534Z,57.66
2023-04-21T08:19:32.633Z,56.49
2023-04-21T08:21:58.947Z,54.02
2023-04-21T08:24:25.093Z,52.41
2023-04-21T08:26:51.237Z,51.96
2023-04-21T08:29:17.617Z,53.98
2023-04-21T08:31:43.897Z,54.70
2023-04-21T08:34:10.073Z,52.91
2023-04-21T08:36:36.192Z,52.37
2023-04-21T08:39:02.324Z,51.33
2023-04-21T08:41:28.473Z,51.40
2023-04-21T08:43:54.625Z,52.69
2023-04-21T08:46:20.791Z,54.10
2023-04-21T08:48:46.994Z,53.04
2023-04-21T08:51:13.132Z,51.20
2023-04-21T08:53:39.226Z,50.02
2023-04-21T08:56:11.244Z,50.23
2023-04-21T08:58:37.747Z,46.83
2023-04-21T09:01:03.907Z,46.87
2023-04-21T09:03:30.160Z,46.10
2023-04-21T09:05:56.643Z,46.41
2023-04-21T09:08:22.965Z,44.42
2023-04-21T09:10:49.091Z,45.67
2023-04-21T09:13:15.211Z,46.16
2023-04-21T09:15:41.319Z,44.26
2023-04-21T09:18:07.509Z,43.93
2023-04-21T09:20:33.629Z,43.09
2023-04-21T09:23:00.034Z,42.87
2023-04-21T09:25:26.172Z,44.51
2023-04-21T09:27:52.289Z,45.17
2023-04-21T09:30:18.380Z,44.67
2023-04-21T09:32:44.501Z,43.92
2023-04-21T09:35:10.644Z,42.96
2023-04-21T09:37:36.742Z,40.17
2023-04-21T09:40:04.796Z,39.74
2023-04-21T09:42:31.388Z,40.65
2023-04-21T09:45:10.925Z,40.78
2023-04-21T09:47:43.738Z,38.77
2023-04-21T09:50:12.595Z,40.75
2023-04-21T09:52:39.073Z,40.50
2023-04-21T09:55:05.237Z,42.45
2023-04-21T09:57:31.342Z,41.45
2023-04-21T09:59:57.447Z,42.59
2023-04-21T10:02:23.677Z,43.42
2023-04-21T10:04:50.168Z,41.37
2023-04-21T10:07:16.533Z,39.93
2023-04-21T10:09:42.868Z,38.75
2023-04-21T10:12:09.654Z,38.88
2023-04-21T10:14:36.077Z,37.53
2023-04-21T10:17:02.182Z,37.29
2023-04-21T10:19:28.324Z,35.92
2023-04-21T10:21:54.467Z,37.40
2023-04-21T10:24:20.725Z,38.39
2023-04-21T10:26:46.918Z,37.02
2023-04-21T10:29:13.050Z,36.77
2023-04-21T10:31:39.326Z,41.52
2023-04-21T10:34:05.627Z,43.67
2023-04-21T10:36:31.742Z,42.03
2023-04-21T10:38:57.868Z,41.75
2023-04-21T10:41:23.957Z,39.67
2023-04-21T10:43:50.172Z,38.22
2023-04-21T10:46:16.411Z,39.59
2023-04-21T10:48:42.533Z,40.25
2023-04-21T10:51:08.637Z,38.81
2023-04-21T10:53:34.747Z,38.95
2023-04-21T10:56:00.836Z,37.44
2023-04-21T10:58:26.925Z,36.67
2023-04-21T11:00:53.073Z,38.89
2023-04-21T11:03:19.293Z,40.90
2023-04-21T11:05:45.458Z,37.05
2023-04-21T11:08:11.549Z,37.17
2023-04-21T11:10:37.643Z,36.93
2023-04-21T11:13:03.734Z,36.04
2023-04-21T11:15:29.828Z,35.50
2023-04-21T11:17:55.988Z,35.44
2023-04-21T11:20:22.113Z,36.23
2023-04-21T11:22:48.223Z,35.16
2023-04-21T11:25:14.344Z,35.03
2023-04-21T11:27:40.441Z,36.71
2023-04-21T11:30:06.571Z,35.89
2023-04-21T11:32:32.718Z,35.49
2023-04-21T11:34:59.168Z,38.70
2023-04-21T11:37:25.343Z,40.11
2023-04-21T11:39:51.447Z,42.05
2023-04-21T11:42:17.542Z,44.71
2023-04-21T11:44:43.672Z,43.32
2023-04-21T11:47:09.760Z,43.27
2023-04-21T11:49:35.869Z,42.76
2023-04-21T11:52:01.977Z,43.37
2023-04-21T11:54:28.062Z,44.59
2023-04-21T11:56:54.181Z,44.36
2023-04-21T11:59:20.293Z,44.27
2023-04-21T12:01:46.409Z,44.35
2023-04-21T12:04:12.598Z,44.11
2023-04-21T12:06:38.748Z,45.17
2023-04-21T12:09:04.877Z,45.92
2023-04-21T12:11:30.980Z,43.58
2023-04-21T12:13:57.100Z,43.43
2023-04-21T12:16:23.348Z,45.33
2023-04-21T12:18:49.545Z,46.46
2023-04-21T12:21:15.630Z,45.96
2023-04-21T12:23:41.723Z,46.14
2023-04-21T12:26:07.828Z,46.56
2023-04-21T12:28:33.950Z,44.72
2023-04-21T12:31:00.049Z,43.78
2023-04-21T12:33:26.438Z,44.69
2023-04-21T12:35:52.636Z,44.94
2023-04-21T12:38:18.717Z,44.28
2023-04-21T12:40:44.854Z,45.42
2023-04-21T12:43:10.971Z,45.04
2023-04-21T12:45:37.126Z,45.38
2023-04-21T12:48:03.274Z,45.29
2023-04-21T12:50:29.432Z,45.09
2023-04-21T12:52:55.558Z,45.02
2023-04-21T12:55:21.677Z,44.57
2023-04-21T12:57:47.997Z,43.36
2023-04-21T13:00:14.119Z,43.99
2023-04-21T13:02:40.343Z,43.83
2023-04-21T13:05:06.509Z,43.07
2023-04-21T13:07:32.664Z,43.79
2023-04-21T13:09:58.772Z,42.95
2023-04-21T13:12:24.895Z,42.75
2023-04-21T13:14:50.980Z,42.95
2023-04-21T13:17:17.187Z,42.34
2023-04-21T13:19:43.377Z,42.00
2023-04-21T13:22:09.497Z,42.15
2023-04-21T13:24:35.588Z,42.41
2023-04-21T13:27:01.689Z,43.79
2023-04-21T13:29:27.777Z,43.69
2023-04-21T13:31:53.878Z,42.35
2023-04-21T13:34:20.045Z,43.27
2023-04-21T13:36:46.236Z,42.77
2023-04-21T13:39:12.367Z,42.43
2023-04-21T13:41:38.511Z,41.26
2023-04-21T13:44:04.667Z,41.78
2023-04-21T13:46:30.819Z,40.12
2023-04-21T13:48:56.989Z,39.17
2023-04-21T13:51:23.126Z,39.41
2023-04-21T13:53:49.264Z,39.48
2023-04-21T13:56:15.396Z,38.47
2023-04-21T13:58:41.480Z,37.32
2023-04-21T14:01:07.568Z,36.92
2023-04-21T14:03:33.838Z,37.41
2023-04-21T14:05:59.986Z,36.54
2023-04-21T14:08:26.096Z,37.07
2023-04-21T14:10:52.280Z,37.49
2023-04-21T14:13:33.876Z,40.67
2023-04-21T14:16:02.133Z,40.71
2023-04-21T14:18:28.333Z,40.46
2023-04-21T14:20:54.463Z,39.64
2023-04-21T14:23:20.553Z,38.76
2023-04-21T14:25:46.676Z,39.30
2023-04-21T14:28:12.845Z,40.99
2023-04-21T14:30:38.970Z,39.88
2023-04-21T14:33:05.121Z,38.76
2023-04-21T14:35:31.381Z,39.54
2023-04-21T14:37:57.508Z,39.36
2023-04-21T14:40:23.634Z,39.36
2023-04-21T14:42:49.744Z,39.85
2023-04-21T14:45:15.821Z,40.91
2023-04-21T14:47:42.057Z,42.82
2023-04-21T14:50:08.264Z,42.50
2023-04-21T14:52:34.398Z,42.71
2023-04-21T14:55:00.603Z,42.79
2023-04-21T14:57:26.761Z,43.66
2023-04-21T14:59:52.913Z,41.94
2023-04-21T15:02:19.221Z,42.27
2023-04-21T15:04:45.610Z,43.24
2023-04-21T15:07:11.774Z,42.48
2023-04-21T15:09:38.114Z,43.04
2023-04-21T15:12:04.466Z,43.58
2023-04-21T15:14:30.578Z,43.50
2023-04-21T15:16:56.786Z,43.65
2023-04-21T15:19:25.406Z,43.41
2023-04-21T15:21:51.898Z,43.39
2023-04-21T15:24:18.036Z,44.94
2023-04-21T15:26:44.127Z,44.49
2023-04-21T15:29:10.231Z,44.26
2023-04-21T15:31:37.788Z,44.10
2023-04-21T15:34:04.038Z,43.34
2023-04-21T15:36:30.177Z,43.63
2023-04-21T15:38:56.286Z,44.08
2023-04-21T15:41:22.452Z,44.40
2023-04-21T15:43:48.557Z,43.72
2023-04-21T15:46:14.789Z,43.79
2023-04-21T15:48:40.956Z,43.44
2023-04-21T15:51:07.183Z,43.65
2023-04-21T15:53:33.430Z,44.54
2023-04-21T15:55:59.602Z,43.73
2023-04-21T15:58:25.716Z,43.55
2023-04-21T16:00:51.829Z,43.96
2023-04-21T16:03:18.229Z,43.90
2023-04-21T16:05:44.757Z,42.94
2023-04-21T16:08:11.164Z,43.61
2023-04-21T16:10:37.271Z,43.63
2023-04-21T16:13:03.404Z,42.62
2023-04-21T16:15:29.643Z,43.81
2023-04-21T16:17:56.273Z,44.32
2023-04-21T16:20:22.436Z,44.62
2023-04-21T16:22:48.658Z,45.34
2023-04-21T16:25:14.922Z,46.48
2023-04-21T16:27:41.210Z,46.62
2023-04-21T16:30:08.363Z,47.38
2023-04-21T16:32:34.912Z,45.60
2023-04-21T16:35:01.270Z,45.46
2023-04-21T16:37:27.406Z,45.56
2023-04-21T16:39:53.523Z,45.44
2023-04-21T16:42:19.649Z,44.73
2023-04-21T16:44:45.776Z,44.70
2023-04-21T16:47:11.897Z,45.30
2023-04-21T16:49:38.137Z,46.25
2023-04-21T16:52:04.301Z,45.08
2023-04-21T16:54:30.434Z,46.55
2023-04-21T16:56:56.531Z,46.15
2023-04-21T16:59:22.652Z,45.62
2023-04-21T17:01:48.759Z,45.42
2023-04-21T17:04:14.965Z,45.69
2023-04-21T17:06:41.156Z,44.92
2023-04-21T17:09:07.261Z,44.94
2023-04-21T17:11:33.380Z,44.91
2023-04-21T17:13:59.485Z,45.49
2023-04-21T17:16:25.633Z,45.98
2023-04-21T17:18:51.792Z,45.89
2023-04-21T17:21:17.923Z,46.78
2023-04-21T17:23:44.030Z,45.92
2023-04-21T17:26:11.577Z,46.28
2023-04-21T17:28:39.185Z,46.64
2023-04-21T17:31:15.308Z,46.34
2023-04-21T17:33:42.419Z,46.62
2023-04-21T17:36:08.531Z,47.12
2023-04-21T17:38:34.620Z,46.01
2023-04-21T17:41:00.738Z,46.54
2023-04-21T17:43:26.887Z,46.03
2023-04-21T17:45:53.041Z,46.72
2023-04-21T17:48:19.221Z,47.58
2023-04-21T17:50:45.328Z,47.04
2023-04-21T17:53:11.407Z,47.49
2023-04-21T17:55:37.517Z,47.72
2023-04-21T17:58:03.618Z,47.43
2023-04-21T18:00:29.734Z,46.57
2023-04-21T18:02:55.997Z,47.90
2023-04-21T18:05:22.163Z,48.82
2023-04-21T18:07:48.275Z,48.83
2023-04-21T18:10:14.403Z,48.68
2023-04-21T18:12:40.496Z,49.23
2023-04-21T18:15:06.597Z,49.64
2023-04-21T18:17:32.714Z,50.51
2023-04-21T18:19:58.834Z,50.76
2023-04-21T18:22:24.984Z,50.95
2023-04-21T18:24:51.092Z,51.06
2023-04-21T18:27:17.188Z,51.44
2023-04-21T18:29:43.272Z,51.90
2023-04-21T18:32:09.516Z,52.04
2023-04-21T18:34:36.101Z,52.78
2023-04-21T18:37:02.625Z,52.86
2023-04-21T18:39:28.729Z,52.92
2023-04-21T18:41:54.843Z,53.25
2023-04-21T18:44:20.965Z,53.97
2023-04-21T18:46:47.089Z,54.08
2023-04-21T18:49:13.203Z,53.67
2023-04-21T18:51:39.321Z,54.06
2023-04-21T18:54:05.497Z,54.29
2023-04-21T18:56:31.608Z,54.46
2023-04-21T18:58:57.722Z,55.31
2023-04-21T19:01:23.897Z,55.02
2023-04-21T19:03:50.204Z,55.63
2023-04-21T19:06:16.443Z,55.74
2023-04-21T19:08:43.134Z,55.48
2023-04-21T19:11:09.397Z,55.22
2023-04-21T19:13:35.506Z,56.41
2023-04-21T19:16:01.669Z,56.08
2023-04-21T19:18:27.799Z,56.45
2023-04-21T19:20:53.905Z,56.86
2023-04-21T19:23:19.992Z,56.80
2023-04-21T19:25:46.118Z,57.05
2023-04-21T19:28:12.256Z,57.74
2023-04-21T19:30:38.393Z,57.71
2023-04-21T19:33:04.543Z,57.57
2023-04-21T19:35:30.673Z,57.52
2023-04-21T19:37:56.782Z,57.57
2023-04-21T19:40:22.896Z,58.07
2023-04-21T19:42:48.994Z,58.08
2023-04-21T19:45:15.124Z,57.74
2023-04-21T19:47:41.306Z,58.17
2023-04-21T19:50:07.483Z,58.01
2023-04-21T19:52:33.581Z,57.58
2023-04-21T19:54:59.690Z,57.56
2023-04-21T19:57:25.782Z,57.79
2023-04-21T19:59:51.919Z,57.51
2023-04-21T20:02:18.074Z,58.05
2023-04-21T20:04:44.412Z,58.05
2023-04-21T20:07:10.554Z,58.12
2023-04-21T20:09:36.937Z,58.17
2023-04-21T20:12:03.240Z,58.70
2023-04-21T20:14:29.354Z,58.50
2023-04-21T20:16:55.458Z,58.00
2023-04-21T20:19:21.610Z,57.62
2023-04-21T20:21:47.698Z,57.83
2023-04-21T20:24:13.800Z,58.16
2023-04-21T20:26:39.896Z,58.23
2023-04-21T20:29:06.015Z,58.51
2023-04-21T20:31:32.218Z,59.26
2023-04-21T20:33:58.336Z,58.94
2023-04-21T20:36:24.439Z,58.79
2023-04-21T20:38:50.561Z,59.32
2023-04-21T20:41:16.697Z,58.79
2023-04-21T20:43:42.789Z,59.38
2023-04-21T20:46:08.955Z,60.14
2023-04-21T20:48:35.058Z,59.82
2023-04-21T20:51:01.181Z,60.31
2023-04-21T20:53:27.278Z,59.98
2023-04-21T20:55:53.475Z,59.51
2023-04-21T20:58:19.591Z,59.43
2023-04-21T21:00:45.724Z,59.21
2023-04-21T21:03:12.047Z,62.52
2023-04-21T21:05:38.260Z,60.82
2023-04-21T21:08:04.401Z,59.38
2023-04-21T21:10:30.599Z,59.53
2023-04-21T21:12:56.684Z,58.67
2023-04-21T21:15:22.800Z,58.99
2023-04-21T21:17:48.929Z,59.92
2023-04-21T21:20:15.092Z,59.79
2023-04-21T21:22:41.186Z,59.56
2023-04-21T21:25:07.285Z,58.97
2023-04-21T21:27:33.424Z,60.11
2023-04-21T21:29:59.525Z,60.86
2023-04-21T21:32:25.649Z,60.29
2023-04-21T21:34:51.778Z,59.08
2023-04-21T21:37:17.885Z,60.49
2023-04-21T21:39:43.967Z,59.48
2023-04-21T21:42:10.066Z,60.31
2023-04-21T21:44:36.182Z,59.54
2023-04-21T21:47:02.307Z,59.04
2023-04-21T21:49:28.433Z,58.37
2023-04-21T21:51:54.559Z,58.47
2023-04-21T21:54:20.701Z,58.37
2023-04-21T21:56:46.839Z,59.52
2023-04-21T21:59:12.929Z,59.07
2023-04-21T22:01:39.084Z,58.78
2023-04-21T22:04:05.437Z,59.06
2023-04-21T22:06:31.730Z,59.51
2023-04-21T22:08:57.850Z,59.50
2023-04-21T22:11:23.979Z,59.84
2023-04-21T22:13:50.062Z,60.39
2023-04-21T22:16:16.183Z,59.09
2023-04-21T22:18:42.379Z,59.07
2023-04-21T22:21:08.465Z,59.67
2023-04-21T22:23:34.572Z,60.61
2023-04-21T22:26:00.675Z,59.88
2023-04-21T22:28:26.766Z,59.20
2023-04-21T22:30:52.912Z,59.72
2023-04-21T22:33:19.017Z,59.94
2023-04-21T22:35:45.105Z,59.16
2023-04-21T22:38:11.194Z,58.39
2023-04-21T22:40:37.283Z,58.52
2023-04-21T22:43:03.390Z,58.23
2023-04-21T22:45:29.510Z,59.21
2023-04-21T22:47:55.643Z,59.56
2023-04-21T22:50:21.835Z,58.84
2023-04-21T22:52:47.952Z,59.12
2023-04-21T22:55:14.070Z,58.58
2023-04-21T22:57:40.184Z,58.42
2023-04-21T23:00:06.310Z,59.16
2023-04-21T23:02:32.524Z,58.66
2023-04-21T23:04:58.821Z,58.71
2023-04-21T23:07:24.947Z,58.50
2023-04-21T23:09:51.036Z,58.52
2023-04-21T23:12:17.148Z,57.66
2023-04-21T23:14:43.260Z,59.40
2023-04-21T23:17:09.371Z,58.64
2023-04-21T23:19:35.500Z,58.54
2023-04-21T23:22:01.726Z,57.84
2023-04-21T23:24:27.859Z,58.67
2023-04-21T23:26:53.973Z,59.61
2023-04-21T23:29:20.114Z,60.85
2023-04-21T23:31:46.276Z,60.35
2023-04-21T23:34:12.381Z,58.88
2023-04-21T23:36:38.480Z,59.72
2023-04-21T23:39:04.631Z,59.72
2023-04-21T23:41:30.754Z,59.79
2023-04-21T23:43:56.864Z,58.18
2023-04-21T23:46:23.071Z,56.91
2023-04-21T23:48:49.208Z,60.20
2023-04-21T23:51:15.341Z,59.25
2023-04-21T23:53:41.524Z,59.21
2023-04-21T23:56:07.646Z,58.16
2023-04-21T23:58:33.762Z,59.55
